Aeroporto :
LOGIN :

Iscrizione | Disclaimer

   EN    FR    IT 

 










Sommario :    VFR   VFR Marginale   IFR   IFR Intensivo   IFR Molto Intensivo
Visibilità : 
Base nubi : 
>= 8 km
>= 3000ft
5 / 8 km
1000 / 3000 ft
1500m / 5 km
500 / 1000 ft
800 / 1500m
200 / 500 ft
< 800m
< 200 ft
Simboli :   Temporali  Nebbia  Neve Forte  Precipitazioni Forti  Vento > 20 kt
SIGMETs :   Varie  Temporali  Ghiacco  Turbolenza  Onda orograficha  Ceneri Vulcaniche






- Altitudine del aeroporto : 23 ft
- Codice IATA : XFW


EDHI - Hamburg Finkenwerder

ULTIMO METAR :
  • 071050Z VRB05KT 9999 FEW036 15/06 Q1033

METARs OBSOLETI :
  • 071020Z 27005KT 220V300 9999 FEW028 15/08 Q1033
  • 070950Z 28005KT 240V350 9999 FEW024 14/08 Q1033
  • 070920Z 27005KT 240V310 CAVOK 12/08 Q1032
  • 070850Z 27006KT CAVOK 11/08 Q1032
  • 070820Z 28006KT 9999 FEW007 10/08 Q1032

TAF TAF EDHI
Valido dal 07 a 09 ore il 07 a 18 ore UTC


070800Z 0709/0718 30006KT 9999 SCT010
BECMG 0714/0716 01005KT



MetMap, La meteo Aeronautica in un colpo d'occhio ! - Copyright ORBIFLY Dicembre 2007 - Disclaimer

ORBIFLY MET'MAP TEAM :

Programmazione e sviluppo : Alexandra Zaïnal
Concezione : Baudouin d'Aumeries
Aiuto per la programmazione : Marc-Olivier Méhu
Supporto tecnico e logistico : Manuel Goepfert
Aiuto per la traduzione : Arnaldo La Scala

Contatto : metmap@orbifly.com




FONTI E CREDITI :

   NOAA